sensor_id;sensor_type;location;lat;lon;timestamp;P1;durP1;ratioP1;P2;durP2;ratioP2
44328;SDS011;30039;51.462;6.892;2023-04-06T00:01:52;12.60;;;6.60;;
44328;SDS011;30039;51.462;6.892;2023-04-06T00:04:37;11.45;;;6.47;;
44328;SDS011;30039;51.462;6.892;2023-04-06T00:07:23;11.95;;;6.45;;
44328;SDS011;30039;51.462;6.892;2023-04-06T00:10:09;9.90;;;5.93;;
44328;SDS011;30039;51.462;6.892;2023-04-06T00:12:54;12.93;;;5.43;;
44328;SDS011;30039;51.462;6.892;2023-04-06T00:15:41;12.52;;;6.63;;
44328;SDS011;30039;51.462;6.892;2023-04-06T00:18:27;12.98;;;5.88;;
44328;SDS011;30039;51.462;6.892;2023-04-06T00:21:13;10.00;;;5.72;;
44328;SDS011;30039;51.462;6.892;2023-04-06T00:24:00;11.15;;;5.50;;
44328;SDS011;30039;51.462;6.892;2023-04-06T00:26:45;10.38;;;5.70;;
44328;SDS011;30039;51.462;6.892;2023-04-06T00:29:32;8.13;;;5.00;;
44328;SDS011;30039;51.462;6.892;2023-04-06T00:32:18;9.63;;;5.47;;
44328;SDS011;30039;51.462;6.892;2023-04-06T00:35:05;9.55;;;5.63;;
44328;SDS011;30039;51.462;6.892;2023-04-06T00:37:50;10.05;;;5.78;;
44328;SDS011;30039;51.462;6.892;2023-04-06T00:40:36;9.73;;;5.45;;
44328;SDS011;30039;51.462;6.892;2023-04-06T00:43:22;9.88;;;6.03;;
44328;SDS011;30039;51.462;6.892;2023-04-06T00:46:07;9.85;;;5.82;;
44328;SDS011;30039;51.462;6.892;2023-04-06T00:48:53;10.10;;;6.13;;
44328;SDS011;30039;51.462;6.892;2023-04-06T00:51:39;9.88;;;5.43;;
44328;SDS011;30039;51.462;6.892;2023-04-06T00:54:25;9.93;;;5.88;;
44328;SDS011;30039;51.462;6.892;2023-04-06T00:57:11;10.30;;;5.95;;
44328;SDS011;30039;51.462;6.892;2023-04-06T00:59:57;9.60;;;5.28;;
44328;SDS011;30039;51.462;6.892;2023-04-06T01:02:43;11.10;;;5.68;;
44328;SDS011;30039;51.462;6.892;2023-04-06T01:05:30;10.20;;;5.97;;
44328;SDS011;30039;51.462;6.892;2023-04-06T01:08:18;11.18;;;5.78;;
44328;SDS011;30039;51.462;6.892;2023-04-06T01:11:03;9.48;;;5.93;;
44328;SDS011;30039;51.462;6.892;2023-04-06T01:13:49;10.63;;;5.90;;
44328;SDS011;30039;51.462;6.892;2023-04-06T01:16:35;10.65;;;5.45;;
44328;SDS011;30039;51.462;6.892;2023-04-06T01:19:21;10.88;;;5.63;;
44328;SDS011;30039;51.462;6.892;2023-04-06T01:22:08;10.95;;;5.70;;
44328;SDS011;30039;51.462;6.892;2023-04-06T01:24:53;10.55;;;5.70;;
44328;SDS011;30039;51.462;6.892;2023-04-06T01:27:39;11.02;;;6.30;;
44328;SDS011;30039;51.462;6.892;2023-04-06T01:30:25;12.48;;;6.40;;
44328;SDS011;30039;51.462;6.892;2023-04-06T01:33:11;11.82;;;6.82;;
44328;SDS011;30039;51.462;6.892;2023-04-06T01:35:58;11.80;;;7.07;;
44328;SDS011;30039;51.462;6.892;2023-04-06T01:38:44;11.02;;;5.95;;
44328;SDS011;30039;51.462;6.892;2023-04-06T01:41:34;11.55;;;6.50;;
44328;SDS011;30039;51.462;6.892;2023-04-06T01:44:20;10.57;;;6.78;;
44328;SDS011;30039;51.462;6.892;2023-04-06T01:47:06;13.35;;;6.28;;
44328;SDS011;30039;51.462;6.892;2023-04-06T01:49:51;9.85;;;5.90;;
44328;SDS011;30039;51.462;6.892;2023-04-06T01:52:37;10.48;;;6.22;;
44328;SDS011;30039;51.462;6.892;2023-04-06T01:55:23;11.40;;;5.85;;
44328;SDS011;30039;51.462;6.892;2023-04-06T01:58:09;11.10;;;6.10;;
44328;SDS011;30039;51.462;6.892;2023-04-06T02:00:54;10.45;;;6.13;;
44328;SDS011;30039;51.462;6.892;2023-04-06T02:03:40;11.82;;;6.25;;
44328;SDS011;30039;51.462;6.892;2023-04-06T02:06:26;10.40;;;5.88;;
44328;SDS011;30039;51.462;6.892;2023-04-06T02:09:12;9.50;;;6.47;;
44328;SDS011;30039;51.462;6.892;2023-04-06T02:11:57;11.75;;;5.72;;
44328;SDS011;30039;51.462;6.892;2023-04-06T02:14:43;12.25;;;6.93;;
44328;SDS011;30039;51.462;6.892;2023-04-06T02:17:29;14.77;;;6.95;;
44328;SDS011;30039;51.462;6.892;2023-04-06T02:20:14;14.27;;;6.88;;
44328;SDS011;30039;51.462;6.892;2023-04-06T02:23:02;13.50;;;6.85;;
44328;SDS011;30039;51.462;6.892;2023-04-06T02:25:47;16.42;;;7.03;;
44328;SDS011;30039;51.462;6.892;2023-04-06T02:28:33;13.77;;;7.60;;
44328;SDS011;30039;51.462;6.892;2023-04-06T02:31:19;13.98;;;7.30;;
44328;SDS011;30039;51.462;6.892;2023-04-06T02:34:04;11.80;;;7.60;;
44328;SDS011;30039;51.462;6.892;2023-04-06T02:36:50;16.20;;;7.05;;
44328;SDS011;30039;51.462;6.892;2023-04-06T02:39:37;15.73;;;7.38;;
44328;SDS011;30039;51.462;6.892;2023-04-06T02:42:22;11.85;;;6.35;;
44328;SDS011;30039;51.462;6.892;2023-04-06T02:45:08;11.43;;;6.65;;
44328;SDS011;30039;51.462;6.892;2023-04-06T02:47:54;12.68;;;7.53;;
44328;SDS011;30039;51.462;6.892;2023-04-06T02:50:39;15.15;;;7.28;;
44328;SDS011;30039;51.462;6.892;2023-04-06T02:53:28;11.75;;;7.05;;
44328;SDS011;30039;51.462;6.892;2023-04-06T02:56:13;14.00;;;7.22;;
44328;SDS011;30039;51.462;6.892;2023-04-06T02:58:59;14.48;;;7.13;;
44328;SDS011;30039;51.462;6.892;2023-04-06T03:01:45;14.93;;;8.02;;
44328;SDS011;30039;51.462;6.892;2023-04-06T03:04:31;14.93;;;8.25;;
44328;SDS011;30039;51.462;6.892;2023-04-06T03:07:17;14.25;;;7.60;;
44328;SDS011;30039;51.462;6.892;2023-04-06T03:10:02;13.60;;;7.82;;
44328;SDS011;30039;51.462;6.892;2023-04-06T03:12:48;17.23;;;7.95;;
44328;SDS011;30039;51.462;6.892;2023-04-06T03:15:34;15.20;;;8.05;;
44328;SDS011;30039;51.462;6.892;2023-04-06T03:18:23;15.63;;;7.82;;
44328;SDS011;30039;51.462;6.892;2023-04-06T03:21:09;17.30;;;8.48;;
44328;SDS011;30039;51.462;6.892;2023-04-06T03:23:55;14.07;;;8.05;;
44328;SDS011;30039;51.462;6.892;2023-04-06T03:26:40;13.43;;;7.03;;
44328;SDS011;30039;51.462;6.892;2023-04-06T03:29:26;12.60;;;6.82;;
44328;SDS011;30039;51.462;6.892;2023-04-06T03:32:12;13.88;;;7.15;;
44328;SDS011;30039;51.462;6.892;2023-04-06T03:34:58;15.00;;;6.75;;
44328;SDS011;30039;51.462;6.892;2023-04-06T03:37:43;12.15;;;6.38;;
44328;SDS011;30039;51.462;6.892;2023-04-06T03:40:32;14.57;;;6.65;;
44328;SDS011;30039;51.462;6.892;2023-04-06T03:43:18;14.63;;;6.60;;
44328;SDS011;30039;51.462;6.892;2023-04-06T03:46:04;13.45;;;6.55;;
44328;SDS011;30039;51.462;6.892;2023-04-06T03:48:50;15.75;;;7.30;;
44328;SDS011;30039;51.462;6.892;2023-04-06T03:51:36;14.88;;;6.68;;
44328;SDS011;30039;51.462;6.892;2023-04-06T03:54:22;13.32;;;6.82;;
44328;SDS011;30039;51.462;6.892;2023-04-06T03:57:07;12.02;;;6.95;;
44328;SDS011;30039;51.462;6.892;2023-04-06T03:59:53;12.23;;;6.78;;
44328;SDS011;30039;51.462;6.892;2023-04-06T04:02:39;12.32;;;6.93;;
44328;SDS011;30039;51.462;6.892;2023-04-06T04:05:25;12.73;;;6.30;;
44328;SDS011;30039;51.462;6.892;2023-04-06T04:08:12;11.00;;;6.50;;
44328;SDS011;30039;51.462;6.892;2023-04-06T04:10:58;11.25;;;6.05;;
44328;SDS011;30039;51.462;6.892;2023-04-06T04:13:43;11.07;;;6.22;;
44328;SDS011;30039;51.462;6.892;2023-04-06T04:16:29;11.25;;;6.25;;
44328;SDS011;30039;51.462;6.892;2023-04-06T04:19:15;13.70;;;6.25;;
44328;SDS011;30039;51.462;6.892;2023-04-06T04:22:00;12.48;;;6.55;;
44328;SDS011;30039;51.462;6.892;2023-04-06T04:24:46;12.07;;;5.97;;
44328;SDS011;30039;51.462;6.892;2023-04-06T04:27:31;10.98;;;6.57;;
44328;SDS011;30039;51.462;6.892;2023-04-06T04:30:17;11.18;;;6.10;;
44328;SDS011;30039;51.462;6.892;2023-04-06T04:33:03;10.60;;;5.90;;
44328;SDS011;30039;51.462;6.892;2023-04-06T04:35:48;13.13;;;6.47;;
44328;SDS011;30039;51.462;6.892;2023-04-06T04:38:34;13.57;;;6.97;;
44328;SDS011;30039;51.462;6.892;2023-04-06T04:41:20;12.80;;;5.95;;
44328;SDS011;30039;51.462;6.892;2023-04-06T04:44:06;11.77;;;5.82;;
44328;SDS011;30039;51.462;6.892;2023-04-06T04:46:52;9.23;;;5.82;;
44328;SDS011;30039;51.462;6.892;2023-04-06T04:49:37;9.05;;;5.72;;
44328;SDS011;30039;51.462;6.892;2023-04-06T04:52:23;9.93;;;5.70;;
44328;SDS011;30039;51.462;6.892;2023-04-06T04:55:11;12.70;;;6.13;;
44328;SDS011;30039;51.462;6.892;2023-04-06T04:57:57;9.20;;;5.97;;
44328;SDS011;30039;51.462;6.892;2023-04-06T05:00:43;14.13;;;6.18;;
44328;SDS011;30039;51.462;6.892;2023-04-06T05:03:29;12.50;;;5.85;;
44328;SDS011;30039;51.462;6.892;2023-04-06T05:06:14;9.25;;;5.40;;
44328;SDS011;30039;51.462;6.892;2023-04-06T05:09:00;10.90;;;6.05;;
44328;SDS011;30039;51.462;6.892;2023-04-06T05:11:46;13.18;;;5.70;;
44328;SDS011;30039;51.462;6.892;2023-04-06T05:14:32;10.77;;;5.60;;
44328;SDS011;30039;51.462;6.892;2023-04-06T05:17:17;12.40;;;6.47;;
44328;SDS011;30039;51.462;6.892;2023-04-06T05:20:03;8.90;;;5.50;;
44328;SDS011;30039;51.462;6.892;2023-04-06T05:22:49;7.88;;;5.45;;
44328;SDS011;30039;51.462;6.892;2023-04-06T05:25:35;9.25;;;5.47;;
44328;SDS011;30039;51.462;6.892;2023-04-06T05:28:20;11.23;;;5.40;;
44328;SDS011;30039;51.462;6.892;2023-04-06T05:31:06;8.63;;;5.65;;
44328;SDS011;30039;51.462;6.892;2023-04-06T05:33:52;10.52;;;5.78;;
44328;SDS011;30039;51.462;6.892;2023-04-06T05:36:38;10.05;;;5.43;;
44328;SDS011;30039;51.462;6.892;2023-04-06T05:39:25;7.93;;;5.25;;
44328;SDS011;30039;51.462;6.892;2023-04-06T05:42:11;10.98;;;5.15;;
44328;SDS011;30039;51.462;6.892;2023-04-06T05:44:57;9.98;;;5.30;;
44328;SDS011;30039;51.462;6.892;2023-04-06T05:47:43;8.52;;;5.03;;
44328;SDS011;30039;51.462;6.892;2023-04-06T05:50:31;8.05;;;5.10;;
44328;SDS011;30039;51.462;6.892;2023-04-06T05:53:17;9.02;;;5.50;;
44328;SDS011;30039;51.462;6.892;2023-04-06T05:56:03;8.75;;;5.55;;
44328;SDS011;30039;51.462;6.892;2023-04-06T05:58:48;9.20;;;5.28;;
44328;SDS011;30039;51.462;6.892;2023-04-06T06:01:35;10.32;;;5.10;;
44328;SDS011;30039;51.462;6.892;2023-04-06T06:04:21;10.10;;;5.22;;
44328;SDS011;30039;51.462;6.892;2023-04-06T06:07:07;9.75;;;5.20;;
44328;SDS011;30039;51.462;6.892;2023-04-06T06:09:52;9.80;;;5.30;;
44328;SDS011;30039;51.462;6.892;2023-04-06T06:12:39;8.90;;;4.65;;
44328;SDS011;30039;51.462;6.892;2023-04-06T06:15:25;12.63;;;5.43;;
44328;SDS011;30039;51.462;6.892;2023-04-06T06:18:10;10.30;;;5.15;;
44328;SDS011;30039;51.462;6.892;2023-04-06T06:20:56;9.82;;;5.05;;
44328;SDS011;30039;51.462;6.892;2023-04-06T06:23:42;6.13;;;4.35;;
44328;SDS011;30039;51.462;6.892;2023-04-06T06:26:28;8.60;;;4.82;;
44328;SDS011;30039;51.462;6.892;2023-04-06T06:29:14;9.02;;;5.32;;
44328;SDS011;30039;51.462;6.892;2023-04-06T06:32:00;10.48;;;5.28;;
44328;SDS011;30039;51.462;6.892;2023-04-06T06:34:46;9.10;;;5.00;;
44328;SDS011;30039;51.462;6.892;2023-04-06T06:37:32;11.20;;;4.85;;
44328;SDS011;30039;51.462;6.892;2023-04-06T06:40:18;9.27;;;4.70;;
44328;SDS011;30039;51.462;6.892;2023-04-06T06:43:03;8.48;;;4.60;;
44328;SDS011;30039;51.462;6.892;2023-04-06T06:45:50;9.52;;;5.15;;
44328;SDS011;30039;51.462;6.892;2023-04-06T06:48:36;9.02;;;5.30;;
44328;SDS011;30039;51.462;6.892;2023-04-06T06:51:21;8.63;;;4.90;;
44328;SDS011;30039;51.462;6.892;2023-04-06T06:54:07;10.30;;;5.18;;
44328;SDS011;30039;51.462;6.892;2023-04-06T06:56:53;8.68;;;4.88;;
44328;SDS011;30039;51.462;6.892;2023-04-06T06:59:40;8.77;;;4.72;;
44328;SDS011;30039;51.462;6.892;2023-04-06T07:02:25;10.93;;;5.18;;
44328;SDS011;30039;51.462;6.892;2023-04-06T07:05:11;8.52;;;4.65;;
44328;SDS011;30039;51.462;6.892;2023-04-06T07:07:58;8.48;;;5.20;;
44328;SDS011;30039;51.462;6.892;2023-04-06T07:10:44;8.60;;;5.30;;
44328;SDS011;30039;51.462;6.892;2023-04-06T07:13:29;10.30;;;5.40;;
44328;SDS011;30039;51.462;6.892;2023-04-06T07:16:15;9.50;;;4.88;;
44328;SDS011;30039;51.462;6.892;2023-04-06T07:19:01;11.52;;;5.85;;
44328;SDS011;30039;51.462;6.892;2023-04-06T07:21:47;10.50;;;5.68;;
44328;SDS011;30039;51.462;6.892;2023-04-06T07:24:36;8.82;;;5.30;;
44328;SDS011;30039;51.462;6.892;2023-04-06T07:27:22;13.85;;;9.95;;
44328;SDS011;30039;51.462;6.892;2023-04-06T07:30:07;8.60;;;5.32;;
44328;SDS011;30039;51.462;6.892;2023-04-06T07:32:53;13.38;;;6.15;;
44328;SDS011;30039;51.462;6.892;2023-04-06T07:35:41;9.40;;;5.68;;
44328;SDS011;30039;51.462;6.892;2023-04-06T07:38:26;11.57;;;5.70;;
44328;SDS011;30039;51.462;6.892;2023-04-06T07:41:12;9.07;;;5.72;;
44328;SDS011;30039;51.462;6.892;2023-04-06T07:43:58;10.82;;;6.20;;
44328;SDS011;30039;51.462;6.892;2023-04-06T07:46:43;9.38;;;6.22;;
44328;SDS011;30039;51.462;6.892;2023-04-06T07:49:29;13.10;;;6.15;;
44328;SDS011;30039;51.462;6.892;2023-04-06T07:52:15;11.18;;;6.15;;
44328;SDS011;30039;51.462;6.892;2023-04-06T07:55:01;11.32;;;6.72;;
44328;SDS011;30039;51.462;6.892;2023-04-06T07:57:47;13.20;;;6.25;;
44328;SDS011;30039;51.462;6.892;2023-04-06T08:00:32;11.52;;;7.03;;
44328;SDS011;30039;51.462;6.892;2023-04-06T08:03:18;14.02;;;6.70;;
44328;SDS011;30039;51.462;6.892;2023-04-06T08:06:06;10.48;;;5.95;;
44328;SDS011;30039;51.462;6.892;2023-04-06T08:08:51;12.75;;;6.70;;
44328;SDS011;30039;51.462;6.892;2023-04-06T08:11:37;12.18;;;6.28;;
44328;SDS011;30039;51.462;6.892;2023-04-06T08:14:24;9.85;;;6.18;;
44328;SDS011;30039;51.462;6.892;2023-04-06T08:17:10;15.25;;;6.80;;
44328;SDS011;30039;51.462;6.892;2023-04-06T08:19:57;10.93;;;6.43;;
44328;SDS011;30039;51.462;6.892;2023-04-06T08:22:42;11.02;;;6.63;;
44328;SDS011;30039;51.462;6.892;2023-04-06T08:25:28;12.32;;;6.10;;
44328;SDS011;30039;51.462;6.892;2023-04-06T08:28:14;9.18;;;6.20;;
44328;SDS011;30039;51.462;6.892;2023-04-06T08:31:03;11.82;;;6.45;;
44328;SDS011;30039;51.462;6.892;2023-04-06T08:33:48;11.40;;;6.35;;
44328;SDS011;30039;51.462;6.892;2023-04-06T08:36:34;11.65;;;6.47;;
44328;SDS011;30039;51.462;6.892;2023-04-06T08:39:20;12.52;;;6.15;;
44328;SDS011;30039;51.462;6.892;2023-04-06T08:42:19;7.53;;;5.65;;
44328;SDS011;30039;51.462;6.892;2023-04-06T08:45:05;10.13;;;6.22;;
44328;SDS011;30039;51.462;6.892;2023-04-06T08:47:51;14.63;;;6.75;;
44328;SDS011;30039;51.462;6.892;2023-04-06T08:50:38;12.65;;;7.30;;
44328;SDS011;30039;51.462;6.892;2023-04-06T08:53:24;12.00;;;6.90;;
44328;SDS011;30039;51.462;6.892;2023-04-06T08:56:10;10.95;;;7.10;;
44328;SDS011;30039;51.462;6.892;2023-04-06T08:58:56;9.77;;;6.80;;
44328;SDS011;30039;51.462;6.892;2023-04-06T09:01:42;10.48;;;6.40;;
44328;SDS011;30039;51.462;6.892;2023-04-06T09:04:34;10.75;;;6.47;;
44328;SDS011;30039;51.462;6.892;2023-04-06T09:07:22;11.07;;;7.13;;
44328;SDS011;30039;51.462;6.892;2023-04-06T09:10:08;10.23;;;6.60;;
44328;SDS011;30039;51.462;6.892;2023-04-06T09:13:02;10.63;;;7.18;;
44328;SDS011;30039;51.462;6.892;2023-04-06T09:15:57;10.40;;;6.83;;
44328;SDS011;30039;51.462;6.892;2023-04-06T09:18:43;14.20;;;7.30;;
44328;SDS011;30039;51.462;6.892;2023-04-06T09:21:29;12.63;;;6.70;;
44328;SDS011;30039;51.462;6.892;2023-04-06T09:24:16;11.02;;;6.85;;
44328;SDS011;30039;51.462;6.892;2023-04-06T09:27:06;13.63;;;8.02;;
44328;SDS011;30039;51.462;6.892;2023-04-06T09:29:51;11.40;;;7.13;;
44328;SDS011;30039;51.462;6.892;2023-04-06T09:32:49;10.48;;;7.22;;
44328;SDS011;30039;51.462;6.892;2023-04-06T09:35:36;13.52;;;7.57;;
44328;SDS011;30039;51.462;6.892;2023-04-06T09:38:24;11.48;;;7.25;;
44328;SDS011;30039;51.462;6.892;2023-04-06T09:41:29;12.80;;;7.47;;
44328;SDS011;30039;51.462;6.892;2023-04-06T09:44:16;15.13;;;8.15;;
44328;SDS011;30039;51.462;6.892;2023-04-06T09:47:01;12.63;;;7.47;;
44328;SDS011;30039;51.462;6.892;2023-04-06T09:49:50;13.25;;;7.60;;
44328;SDS011;30039;51.462;6.892;2023-04-06T09:52:42;14.57;;;7.93;;
44328;SDS011;30039;51.462;6.892;2023-04-06T09:55:30;13.75;;;8.07;;
44328;SDS011;30039;51.462;6.892;2023-04-06T09:58:16;17.00;;;7.80;;
44328;SDS011;30039;51.462;6.892;2023-04-06T10:01:15;14.15;;;7.45;;
44328;SDS011;30039;51.462;6.892;2023-04-06T10:07:07;13.90;;;7.82;;
44328;SDS011;30039;51.462;6.892;2023-04-06T10:09:56;14.52;;;7.90;;
44328;SDS011;30039;51.462;6.892;2023-04-06T10:12:43;14.18;;;8.40;;
44328;SDS011;30039;51.462;6.892;2023-04-06T10:15:29;12.50;;;7.55;;
44328;SDS011;30039;51.462;6.892;2023-04-06T10:18:15;17.13;;;8.45;;
44328;SDS011;30039;51.462;6.892;2023-04-06T10:23:52;14.65;;;8.13;;
44328;SDS011;30039;51.462;6.892;2023-04-06T10:26:38;19.10;;;8.40;;
44328;SDS011;30039;51.462;6.892;2023-04-06T10:29:23;15.90;;;8.10;;
44328;SDS011;30039;51.462;6.892;2023-04-06T10:32:09;13.98;;;7.78;;
44328;SDS011;30039;51.462;6.892;2023-04-06T10:35:04;14.40;;;7.63;;
44328;SDS011;30039;51.462;6.892;2023-04-06T10:37:52;17.13;;;8.13;;
44328;SDS011;30039;51.462;6.892;2023-04-06T10:40:38;14.70;;;8.13;;
44328;SDS011;30039;51.462;6.892;2023-04-06T10:43:24;15.45;;;7.68;;
44328;SDS011;30039;51.462;6.892;2023-04-06T10:46:10;16.85;;;8.30;;
44328;SDS011;30039;51.462;6.892;2023-04-06T10:48:56;16.20;;;8.20;;
44328;SDS011;30039;51.462;6.892;2023-04-06T10:51:42;21.55;;;9.10;;
44328;SDS011;30039;51.462;6.892;2023-04-06T10:54:27;13.55;;;7.72;;
44328;SDS011;30039;51.462;6.892;2023-04-06T10:57:13;13.50;;;7.90;;
44328;SDS011;30039;51.462;6.892;2023-04-06T10:59:59;18.83;;;7.90;;
44328;SDS011;30039;51.462;6.892;2023-04-06T11:02:44;15.25;;;7.70;;
44328;SDS011;30039;51.462;6.892;2023-04-06T11:05:30;16.33;;;8.30;;
44328;SDS011;30039;51.462;6.892;2023-04-06T11:08:24;14.50;;;7.22;;
44328;SDS011;30039;51.462;6.892;2023-04-06T11:11:11;15.13;;;7.95;;
44328;SDS011;30039;51.462;6.892;2023-04-06T11:14:01;16.30;;;7.85;;
44328;SDS011;30039;51.462;6.892;2023-04-06T11:16:47;15.18;;;7.93;;
44328;SDS011;30039;51.462;6.892;2023-04-06T11:19:36;14.85;;;7.22;;
44328;SDS011;30039;51.462;6.892;2023-04-06T11:22:22;14.90;;;7.63;;
44328;SDS011;30039;51.462;6.892;2023-04-06T11:25:07;16.75;;;8.40;;
44328;SDS011;30039;51.462;6.892;2023-04-06T11:27:53;14.95;;;8.30;;
44328;SDS011;30039;51.462;6.892;2023-04-06T11:30:39;16.73;;;8.38;;
44328;SDS011;30039;51.462;6.892;2023-04-06T11:33:25;17.90;;;8.52;;
44328;SDS011;30039;51.462;6.892;2023-04-06T11:36:11;17.20;;;8.23;;
44328;SDS011;30039;51.462;6.892;2023-04-06T11:38:58;22.08;;;9.18;;
44328;SDS011;30039;51.462;6.892;2023-04-06T11:41:51;17.63;;;8.18;;
44328;SDS011;30039;51.462;6.892;2023-04-06T11:44:44;16.38;;;8.52;;
44328;SDS011;30039;51.462;6.892;2023-04-06T11:47:35;15.73;;;7.78;;
44328;SDS011;30039;51.462;6.892;2023-04-06T11:50:20;16.75;;;8.40;;
44328;SDS011;30039;51.462;6.892;2023-04-06T11:53:07;18.70;;;8.70;;
44328;SDS011;30039;51.462;6.892;2023-04-06T11:55:53;17.90;;;8.73;;
44328;SDS011;30039;51.462;6.892;2023-04-06T11:58:39;19.55;;;9.18;;
44328;SDS011;30039;51.462;6.892;2023-04-06T12:01:26;15.52;;;9.20;;
44328;SDS011;30039;51.462;6.892;2023-04-06T12:04:12;14.68;;;8.75;;
44328;SDS011;30039;51.462;6.892;2023-04-06T12:06:57;16.17;;;9.23;;
44328;SDS011;30039;51.462;6.892;2023-04-06T12:09:43;18.35;;;8.70;;
44328;SDS011;30039;51.462;6.892;2023-04-06T12:12:29;17.92;;;9.25;;
44328;SDS011;30039;51.462;6.892;2023-04-06T12:15:15;16.83;;;8.95;;
44328;SDS011;30039;51.462;6.892;2023-04-06T12:18:00;18.00;;;10.00;;
44328;SDS011;30039;51.462;6.892;2023-04-06T12:20:46;16.55;;;8.60;;
44328;SDS011;30039;51.462;6.892;2023-04-06T12:23:32;17.77;;;9.30;;
44328;SDS011;30039;51.462;6.892;2023-04-06T12:26:17;18.05;;;9.52;;
44328;SDS011;30039;51.462;6.892;2023-04-06T12:29:03;17.42;;;9.90;;
44328;SDS011;30039;51.462;6.892;2023-04-06T12:31:52;19.52;;;9.30;;
44328;SDS011;30039;51.462;6.892;2023-04-06T12:34:38;16.95;;;9.38;;
44328;SDS011;30039;51.462;6.892;2023-04-06T12:37:24;15.25;;;8.95;;
44328;SDS011;30039;51.462;6.892;2023-04-06T12:40:10;18.25;;;9.13;;
44328;SDS011;30039;51.462;6.892;2023-04-06T12:42:57;19.98;;;9.48;;
44328;SDS011;30039;51.462;6.892;2023-04-06T12:45:42;15.98;;;8.48;;
44328;SDS011;30039;51.462;6.892;2023-04-06T12:48:28;14.38;;;8.90;;
44328;SDS011;30039;51.462;6.892;2023-04-06T12:51:14;16.55;;;9.00;;
44328;SDS011;30039;51.462;6.892;2023-04-06T12:54:01;14.82;;;8.02;;
44328;SDS011;30039;51.462;6.892;2023-04-06T12:56:47;19.88;;;8.02;;
44328;SDS011;30039;51.462;6.892;2023-04-06T12:59:33;14.50;;;8.07;;
44328;SDS011;30039;51.462;6.892;2023-04-06T13:02:20;17.60;;;8.65;;
44328;SDS011;30039;51.462;6.892;2023-04-06T13:05:06;13.45;;;7.55;;
44328;SDS011;30039;51.462;6.892;2023-04-06T13:07:52;14.85;;;7.05;;
44328;SDS011;30039;51.462;6.892;2023-04-06T13:10:38;17.73;;;7.18;;
44328;SDS011;30039;51.462;6.892;2023-04-06T13:13:25;14.10;;;6.72;;
44328;SDS011;30039;51.462;6.892;2023-04-06T13:16:11;12.77;;;7.35;;
44328;SDS011;30039;51.462;6.892;2023-04-06T13:18:56;11.80;;;6.85;;
44328;SDS011;30039;51.462;6.892;2023-04-06T13:21:42;13.90;;;7.72;;
44328;SDS011;30039;51.462;6.892;2023-04-06T13:24:29;13.88;;;7.57;;
44328;SDS011;30039;51.462;6.892;2023-04-06T13:27:14;14.10;;;7.53;;
44328;SDS011;30039;51.462;6.892;2023-04-06T13:30:00;12.48;;;6.72;;
44328;SDS011;30039;51.462;6.892;2023-04-06T13:32:46;10.48;;;6.30;;
44328;SDS011;30039;51.462;6.892;2023-04-06T13:35:33;13.05;;;6.55;;
44328;SDS011;30039;51.462;6.892;2023-04-06T13:38:20;11.02;;;6.50;;
44328;SDS011;30039;51.462;6.892;2023-04-06T13:41:08;13.38;;;6.32;;
44328;SDS011;30039;51.462;6.892;2023-04-06T13:43:54;11.27;;;6.13;;
44328;SDS011;30039;51.462;6.892;2023-04-06T13:46:39;12.55;;;5.28;;
44328;SDS011;30039;51.462;6.892;2023-04-06T13:49:25;8.93;;;4.85;;
44328;SDS011;30039;51.462;6.892;2023-04-06T13:52:13;11.15;;;5.97;;
44328;SDS011;30039;51.462;6.892;2023-04-06T13:55:00;11.02;;;6.20;;
44328;SDS011;30039;51.462;6.892;2023-04-06T13:57:47;12.27;;;6.78;;
44328;SDS011;30039;51.462;6.892;2023-04-06T14:00:33;18.60;;;6.28;;
44328;SDS011;30039;51.462;6.892;2023-04-06T14:03:20;9.50;;;5.60;;
44328;SDS011;30039;51.462;6.892;2023-04-06T14:06:10;9.52;;;5.47;;
44328;SDS011;30039;51.462;6.892;2023-04-06T14:08:55;10.55;;;5.50;;
44328;SDS011;30039;51.462;6.892;2023-04-06T14:11:42;10.13;;;5.57;;
44328;SDS011;30039;51.462;6.892;2023-04-06T14:14:27;9.23;;;5.18;;
44328;SDS011;30039;51.462;6.892;2023-04-06T14:17:14;8.52;;;5.10;;
44328;SDS011;30039;51.462;6.892;2023-04-06T14:20:00;10.35;;;5.70;;
44328;SDS011;30039;51.462;6.892;2023-04-06T14:22:46;11.93;;;5.88;;
44328;SDS011;30039;51.462;6.892;2023-04-06T14:25:31;9.73;;;5.93;;
44328;SDS011;30039;51.462;6.892;2023-04-06T14:28:20;10.10;;;6.40;;
44328;SDS011;30039;51.462;6.892;2023-04-06T14:31:13;13.35;;;6.90;;
44328;SDS011;30039;51.462;6.892;2023-04-06T14:34:00;14.93;;;7.28;;
44328;SDS011;30039;51.462;6.892;2023-04-06T14:36:46;14.20;;;8.13;;
44328;SDS011;30039;51.462;6.892;2023-04-06T14:39:32;10.38;;;6.10;;
44328;SDS011;30039;51.462;6.892;2023-04-06T14:42:18;10.57;;;5.88;;
44328;SDS011;30039;51.462;6.892;2023-04-06T14:45:03;11.38;;;6.43;;
44328;SDS011;30039;51.462;6.892;2023-04-06T14:47:49;10.40;;;6.03;;
44328;SDS011;30039;51.462;6.892;2023-04-06T14:50:35;13.07;;;6.00;;
44328;SDS011;30039;51.462;6.892;2023-04-06T14:53:21;10.27;;;5.95;;
44328;SDS011;30039;51.462;6.892;2023-04-06T14:56:07;12.75;;;5.85;;
44328;SDS011;30039;51.462;6.892;2023-04-06T14:58:53;12.50;;;6.43;;
44328;SDS011;30039;51.462;6.892;2023-04-06T15:01:39;10.43;;;6.32;;
44328;SDS011;30039;51.462;6.892;2023-04-06T15:04:24;8.77;;;5.50;;
44328;SDS011;30039;51.462;6.892;2023-04-06T15:07:10;9.65;;;5.07;;
44328;SDS011;30039;51.462;6.892;2023-04-06T15:09:56;8.13;;;5.50;;
44328;SDS011;30039;51.462;6.892;2023-04-06T15:12:42;9.65;;;5.60;;
44328;SDS011;30039;51.462;6.892;2023-04-06T15:15:28;7.95;;;5.03;;
44328;SDS011;30039;51.462;6.892;2023-04-06T15:18:13;8.65;;;5.20;;
44328;SDS011;30039;51.462;6.892;2023-04-06T15:21:00;11.30;;;5.18;;
44328;SDS011;30039;51.462;6.892;2023-04-06T15:23:46;9.32;;;5.22;;
44328;SDS011;30039;51.462;6.892;2023-04-06T15:26:32;9.05;;;5.20;;
44328;SDS011;30039;51.462;6.892;2023-04-06T15:29:18;7.82;;;4.63;;
44328;SDS011;30039;51.462;6.892;2023-04-06T15:32:04;10.02;;;5.05;;
44328;SDS011;30039;51.462;6.892;2023-04-06T15:34:50;10.70;;;5.60;;
44328;SDS011;30039;51.462;6.892;2023-04-06T15:37:36;9.98;;;5.40;;
44328;SDS011;30039;51.462;6.892;2023-04-06T15:40:23;10.73;;;5.20;;
44328;SDS011;30039;51.462;6.892;2023-04-06T15:43:09;9.13;;;5.30;;
44328;SDS011;30039;51.462;6.892;2023-04-06T15:45:55;10.77;;;6.00;;
44328;SDS011;30039;51.462;6.892;2023-04-06T15:48:41;9.48;;;5.43;;
44328;SDS011;30039;51.462;6.892;2023-04-06T15:51:27;13.38;;;5.90;;
44328;SDS011;30039;51.462;6.892;2023-04-06T15:54:14;11.00;;;5.82;;
44328;SDS011;30039;51.462;6.892;2023-04-06T15:57:01;9.93;;;5.72;;
44328;SDS011;30039;51.462;6.892;2023-04-06T15:59:46;8.07;;;4.78;;
44328;SDS011;30039;51.462;6.892;2023-04-06T16:02:33;6.95;;;4.97;;
44328;SDS011;30039;51.462;6.892;2023-04-06T16:05:27;10.50;;;5.03;;
44328;SDS011;30039;51.462;6.892;2023-04-06T16:08:16;10.05;;;5.72;;
44328;SDS011;30039;51.462;6.892;2023-04-06T16:11:04;9.00;;;4.65;;
44328;SDS011;30039;51.462;6.892;2023-04-06T16:13:57;8.25;;;4.85;;
44328;SDS011;30039;51.462;6.892;2023-04-06T16:16:43;7.22;;;4.15;;
44328;SDS011;30039;51.462;6.892;2023-04-06T16:19:47;9.32;;;4.18;;
44328;SDS011;30039;51.462;6.892;2023-04-06T16:22:42;6.85;;;4.22;;
44328;SDS011;30039;51.462;6.892;2023-04-06T16:25:42;6.07;;;4.05;;
44328;SDS011;30039;51.462;6.892;2023-04-06T16:28:34;6.50;;;3.72;;
44328;SDS011;30039;51.462;6.892;2023-04-06T16:31:21;7.63;;;4.22;;
44328;SDS011;30039;51.462;6.892;2023-04-06T16:36:39;6.57;;;3.90;;
44328;SDS011;30039;51.462;6.892;2023-04-06T16:39:29;7.10;;;3.83;;
44328;SDS011;30039;51.462;6.892;2023-04-06T16:42:15;5.88;;;3.80;;